Time;durP1;ratioP1;P1;durP2;ratioP2;P2;SDS_P1;SDS_P2;PMS_P1;PMS_P2;Temp;Humidity;BMP_temperature;BMP_pressure;BME280_temperature;BME280_humidity;BME280_pressure;Samples;Min_cycle;Max_cycle;Signal;HPM_P1;HPM_P2
2022/12/01 00:00:13;;;;;;;15.60;10.53;;;3.70;95.90;;;;;;5028428;28;20277;-62
2022/12/01 00:02:39;;;;;;;17.27;12.47;;;3.60;95.90;;;;;;4991084;28;20433;-62
2022/12/01 00:05:05;;;;;;;16.57;12.10;;;3.60;95.90;;;;;;4981535;28;20548;-62
2022/12/01 00:07:30;;;;;;;21.83;13.23;;;3.60;95.90;;;;;;5000389;28;20199;-62
2022/12/01 00:12:42;;;;;;;19.20;12.63;;;3.60;95.90;;;;;;5018219;28;20194;-62
2022/12/01 00:15:09;;;;;;;16.67;10.93;;;3.70;95.90;;;;;;5016881;28;20441;-63
2022/12/01 00:18:30;;;;;;;15.37;10.63;;;3.70;95.90;;;;;;5003550;28;20433;-62
2022/12/01 00:20:56;;;;;;;16.97;10.00;;;3.70;95.90;;;;;;4984811;28;20503;-62
2022/12/01 00:23:24;;;;;;;14.37;9.90;;;3.70;95.90;;;;;;4975830;28;20422;-62
2022/12/01 00:25:50;;;;;;;16.93;11.87;;;3.70;95.90;;;;;;4981205;28;20229;-62
2022/12/01 00:28:16;;;;;;;15.00;9.67;;;3.70;95.90;;;;;;5000013;28;20460;-62
2022/12/01 00:30:41;;;;;;;18.37;11.83;;;3.70;95.90;;;;;;4987167;28;20226;-62
2022/12/01 00:33:07;;;;;;;12.83;10.37;;;3.70;95.90;;;;;;5000398;28;20284;-62
2022/12/01 00:35:32;;;;;;;15.53;10.27;;;3.70;95.90;;;;;;4983795;28;20646;-62
2022/12/01 00:37:58;;;;;;;18.23;12.37;;;3.70;95.90;;;;;;5009554;28;20202;-61
2022/12/01 00:40:24;;;;;;;18.50;11.37;;;3.70;95.90;;;;;;4998697;28;20230;-63
2022/12/01 00:42:50;;;;;;;16.77;10.80;;;3.70;95.90;;;;;;5002094;28;20658;-63
2022/12/01 00:45:15;;;;;;;21.80;13.57;;;3.70;95.90;;;;;;4997487;28;20198;-63
2022/12/01 00:47:41;;;;;;;15.07;10.30;;;3.70;95.90;;;;;;4993094;28;20201;-63
2022/12/01 00:50:07;;;;;;;19.97;10.90;;;3.70;95.90;;;;;;5015919;28;20198;-63
2022/12/01 00:52:33;;;;;;;16.80;11.40;;;3.70;95.90;;;;;;4986059;28;20198;-63
2022/12/01 00:54:58;;;;;;;17.07;10.33;;;3.70;95.90;;;;;;5014162;28;20199;-63
2022/12/01 00:57:24;;;;;;;19.03;11.87;;;3.70;96.00;;;;;;5000445;28;20198;-63
2022/12/01 00:59:50;;;;;;;15.77;10.60;;;3.80;96.00;;;;;;4995648;28;20243;-63
2022/12/01 01:02:15;;;;;;;19.57;11.30;;;3.70;96.00;;;;;;4999952;28;20191;-63
2022/12/01 01:04:41;;;;;;;18.57;12.47;;;3.70;96.00;;;;;;5004540;28;20199;-63
2022/12/01 01:07:07;;;;;;;15.30;10.30;;;3.70;95.90;;;;;;4987448;28;20206;-63
2022/12/01 01:09:32;;;;;;;14.53;10.97;;;3.80;96.00;;;;;;5000666;28;20203;-63
2022/12/01 01:11:58;;;;;;;14.60;10.37;;;3.80;96.00;;;;;;5004064;28;20206;-63
2022/12/01 01:14:24;;;;;;;19.00;11.63;;;3.80;95.90;;;;;;5019489;28;20279;-63
2022/12/01 01:16:50;;;;;;;19.83;12.70;;;3.80;96.00;;;;;;4985268;28;20184;-63
2022/12/01 01:19:16;;;;;;;19.87;12.27;;;3.70;96.00;;;;;;5001239;28;20257;-62
2022/12/01 01:21:42;;;;;;;22.70;14.17;;;3.70;96.00;;;;;;5019509;28;20191;-63
2022/12/01 01:24:08;;;;;;;22.23;14.37;;;3.70;96.00;;;;;;5019775;28;20442;-63
2022/12/01 01:26:35;;;;;;;17.67;12.40;;;3.70;96.00;;;;;;5017011;28;20446;-63
2022/12/01 01:29:07;;;;;;;20.93;12.70;;;3.70;96.00;;;;;;5026495;28;20214;-63
2022/12/01 01:31:52;;;;;;;17.43;10.50;;;3.70;96.00;;;;;;5026612;28;20434;-62
2022/12/01 01:34:17;;;;;;;18.00;12.63;;;3.70;96.00;;;;;;5035399;28;20422;-63
2022/12/01 01:36:43;;;;;;;16.77;12.07;;;3.70;96.00;;;;;;5008170;28;20441;-62
2022/12/01 01:39:09;;;;;;;16.47;12.20;;;3.80;96.00;;;;;;4991195;28;20217;-62
2022/12/01 01:41:35;;;;;;;17.33;10.90;;;3.70;96.00;;;;;;5020056;28;20250;-63
2022/12/01 01:44:04;;;;;;;20.13;12.57;;;3.70;96.00;;;;;;4987410;28;20195;-63
2022/12/01 01:46:32;;;;;;;20.60;13.30;;;3.70;95.90;;;;;;5019757;28;20186;-63
2022/12/01 01:49:07;;;;;;;17.00;10.87;;;3.80;96.00;;;;;;5019621;28;20428;-63
2022/12/01 01:51:41;;;;;;;20.27;12.47;;;3.80;96.00;;;;;;5036987;28;20463;-62
2022/12/01 01:54:14;;;;;;;19.20;13.03;;;3.70;96.00;;;;;;5037116;28;20424;-63
2022/12/01 01:56:59;;;;;;;18.80;11.13;;;3.70;96.00;;;;;;5013277;28;20437;-63
2022/12/01 01:59:30;;;;;;;17.13;11.17;;;3.80;96.00;;;;;;5013731;28;20473;-63
2022/12/01 02:02:07;;;;;;;18.17;11.67;;;3.70;96.00;;;;;;5036968;28;20966;-63
2022/12/01 02:04:44;;;;;;;16.60;11.37;;;3.70;96.00;;;;;;5036665;28;20410;-63
2022/12/01 02:07:12;;;;;;;18.33;13.20;;;3.70;96.00;;;;;;5030340;28;20451;-62
2022/12/01 02:09:38;;;;;;;16.43;10.83;;;3.70;96.00;;;;;;5032690;28;20419;-62
2022/12/01 02:12:10;;;;;;;16.93;10.07;;;3.70;96.00;;;;;;4986888;28;20617;-63
2022/12/01 02:14:48;;;;;;;21.30;13.03;;;3.70;96.00;;;;;;5006387;28;20677;-63
2022/12/01 02:17:34;;;;;;;17.93;11.93;;;3.70;96.00;;;;;;5018634;28;20445;-63
2022/12/01 02:20:18;;;;;;;16.30;11.23;;;3.70;96.00;;;;;;5005451;28;20470;-63
2022/12/01 02:23:19;;;;;;;16.50;11.30;;;3.60;96.00;;;;;;5011345;28;20441;-63
2022/12/01 02:25:54;;;;;;;16.07;10.97;;;3.60;96.00;;;;;;4936914;29;20437;-64
2022/12/01 02:28:29;;;;;;;20.23;12.93;;;3.60;96.00;;;;;;5023082;28;20455;-63
2022/12/01 02:31:06;;;;;;;20.10;11.73;;;3.60;96.00;;;;;;5018588;28;20523;-63
2022/12/01 02:33:40;;;;;;;19.33;10.93;;;3.70;96.00;;;;;;5017200;28;20444;-63
2022/12/01 02:36:19;;;;;;;16.00;10.57;;;3.70;96.00;;;;;;5008723;28;20470;-63
2022/12/01 02:39:05;;;;;;;18.97;11.03;;;3.60;96.00;;;;;;5035446;28;20467;-63
2022/12/01 02:41:42;;;;;;;18.63;13.43;;;3.70;96.00;;;;;;5038648;28;20486;-63
2022/12/01 02:44:33;;;;;;;18.37;11.80;;;3.60;96.00;;;;;;5014863;28;20432;-64
2022/12/01 02:47:09;;;;;;;21.63;13.03;;;3.70;96.00;;;;;;5016471;28;20442;-63
2022/12/01 02:50:06;;;;;;;19.77;11.50;;;3.60;96.00;;;;;;5018253;28;20467;-63
2022/12/01 02:52:36;;;;;;;20.97;12.63;;;3.60;96.00;;;;;;5024211;28;20441;-63
2022/12/01 02:58:24;;;;;;;18.17;12.23;;;3.60;96.00;;;;;;5029094;28;20472;-64
2022/12/01 03:11:25;;;;;;;15.57;9.80;;;3.60;96.10;;;;;;4897735;29;20419;-63
2022/12/01 03:14:00;;;;;;;19.80;11.67;;;3.70;96.10;;;;;;5026373;28;20437;-63
2022/12/01 03:16:58;;;;;;;16.13;11.80;;;3.60;96.10;;;;;;5006495;28;20532;-63
2022/12/01 03:19:34;;;;;;;15.87;9.57;;;3.70;96.10;;;;;;5035330;28;20546;-63
2022/12/01 03:22:16;;;;;;;15.03;9.73;;;3.70;96.20;;;;;;5035323;28;20429;-63
2022/12/01 03:28:11;;;;;;;15.37;9.93;;;3.70;96.20;;;;;;5031855;28;20489;-64
2022/12/01 04:24:42;;;;;;;9.20;7.17;;;3.60;96.10;;;;;;5032909;28;20417;-63
2022/12/01 04:27:08;;;;;;;11.43;7.00;;;3.60;96.10;;;;;;5015329;28;20461;-64
2022/12/01 04:29:34;;;;;;;11.47;7.67;;;3.60;96.10;;;;;;5013598;28;20191;-64
2022/12/01 04:31:59;;;;;;;8.33;6.27;;;3.60;96.10;;;;;;5022155;28;20229;-64
2022/12/01 04:34:25;;;;;;;10.20;6.60;;;3.60;96.10;;;;;;4998123;28;20196;-64
2022/12/01 04:36:50;;;;;;;11.13;7.30;;;3.60;96.10;;;;;;5010459;28;20558;-63
2022/12/01 04:39:16;;;;;;;10.57;6.83;;;3.60;96.10;;;;;;4982508;28;20210;-63
2022/12/01 04:41:42;;;;;;;9.47;5.80;;;3.60;96.10;;;;;;4998397;28;20206;-63
2022/12/01 04:44:09;;;;;;;8.43;5.97;;;3.50;96.10;;;;;;4981410;28;20199;-63
2022/12/01 04:46:35;;;;;;;9.37;6.67;;;3.50;96.10;;;;;;5009814;28;20222;-64
2022/12/01 04:49:01;;;;;;;9.70;6.63;;;3.50;96.10;;;;;;4999055;28;20440;-63
2022/12/01 04:51:27;;;;;;;9.40;5.90;;;3.50;96.10;;;;;;4984199;28;20434;-63
2022/12/01 04:53:52;;;;;;;9.10;6.50;;;3.40;96.10;;;;;;5002045;28;20194;-63
2022/12/01 04:56:18;;;;;;;9.33;6.87;;;3.40;96.10;;;;;;5017339;28;20195;-63
2022/12/01 04:58:44;;;;;;;10.97;7.47;;;3.40;96.10;;;;;;5003684;28;20214;-63
2022/12/01 05:01:13;;;;;;;12.40;6.63;;;3.40;96.00;;;;;;5016089;28;20308;-64
2022/12/01 05:03:40;;;;;;;9.20;6.53;;;3.30;96.00;;;;;;5013706;28;20202;-63
2022/12/01 05:06:10;;;;;;;8.67;6.00;;;3.30;96.10;;;;;;5035032;28;20473;-63
2022/12/01 05:08:54;;;;;;;8.97;6.37;;;3.30;96.00;;;;;;5015933;28;20432;-63
2022/12/01 05:12:03;;;;;;;9.03;7.10;;;3.30;96.10;;;;;;5011302;28;20438;-63
2022/12/01 05:14:56;;;;;;;9.50;6.83;;;3.30;96.00;;;;;;5023031;28;20442;-63
2022/12/01 05:17:21;;;;;;;10.67;7.00;;;3.30;96.00;;;;;;5028656;28;20444;-63
2022/12/01 05:24:31;;;;;;;10.90;7.33;;;3.30;96.10;;;;;;4894039;29;20258;-63
2022/12/01 05:30:50;;;;;;;10.17;7.43;;;3.20;96.10;;;;;;4890515;29;20431;-63
2022/12/01 05:36:45;;;;;;;12.13;7.77;;;3.00;96.00;;;;;;4911425;29;20491;-65
2022/12/01 05:39:11;;;;;;;11.07;7.70;;;3.10;96.10;;;;;;4886683;29;20480;-65
2022/12/01 05:41:37;;;;;;;11.57;8.37;;;3.10;96.00;;;;;;5139184;23;20530;-63
2022/12/01 05:44:02;;;;;;;11.50;8.90;;;3.10;96.00;;;;;;5027113;28;20199;-63
2022/12/01 05:46:28;;;;;;;12.90;8.83;;;3.10;96.00;;;;;;5030117;28;20195;-63
2022/12/01 05:48:54;;;;;;;12.43;9.07;;;3.10;96.00;;;;;;5022364;28;20198;-62
2022/12/01 05:51:19;;;;;;;10.10;8.20;;;3.20;96.00;;;;;;5025653;28;20182;-64
2022/12/01 05:53:45;;;;;;;10.80;8.03;;;3.20;95.90;;;;;;5004131;28;20201;-63
2022/12/01 05:56:11;;;;;;;11.93;8.33;;;3.10;95.90;;;;;;5033336;28;20224;-63
2022/12/01 05:58:36;;;;;;;12.30;8.83;;;3.10;95.90;;;;;;5020678;28;20211;-63
2022/12/01 06:01:03;;;;;;;13.33;8.83;;;3.10;95.90;;;;;;5038314;28;20190;-63
2022/12/01 06:03:28;;;;;;;10.43;7.60;;;3.10;95.90;;;;;;5044728;28;20187;-63
2022/12/01 06:05:54;;;;;;;11.37;8.50;;;3.10;95.90;;;;;;5052367;28;20444;-63
2022/12/01 06:08:20;;;;;;;14.60;8.90;;;3.10;96.00;;;;;;5026890;28;20197;-63
2022/12/01 06:10:45;;;;;;;9.97;8.07;;;3.20;96.00;;;;;;5019352;28;20190;-63
2022/12/01 06:13:11;;;;;;;10.63;8.03;;;3.20;96.00;;;;;;5009509;28;20198;-62
2022/12/01 06:15:37;;;;;;;13.40;9.70;;;3.20;96.00;;;;;;5020603;28;20256;-63
2022/12/01 06:18:03;;;;;;;13.00;9.40;;;3.20;96.00;;;;;;5001285;28;20191;-63
2022/12/01 06:20:28;;;;;;;12.53;8.90;;;3.20;96.00;;;;;;5017065;28;20221;-63
2022/12/01 06:22:54;;;;;;;11.37;9.27;;;3.20;96.00;;;;;;5020418;28;20225;-63
2022/12/01 06:25:19;;;;;;;12.67;9.43;;;3.20;96.00;;;;;;5030308;28;20206;-63
2022/12/01 06:27:46;;;;;;;9.60;7.57;;;3.20;96.10;;;;;;5021081;28;20187;-62
2022/12/01 06:30:12;;;;;;;13.17;9.00;;;3.20;96.10;;;;;;4999217;28;20193;-63
2022/12/01 06:32:37;;;;;;;12.23;7.60;;;3.20;96.10;;;;;;5030901;28;20448;-63
2022/12/01 06:35:03;;;;;;;14.00;9.00;;;3.20;96.10;;;;;;5006853;28;20444;-63
2022/12/01 06:37:29;;;;;;;11.17;8.33;;;3.20;96.00;;;;;;5006998;28;20186;-63
2022/12/01 06:39:54;;;;;;;13.50;9.03;;;3.20;96.00;;;;;;5026293;28;20207;-62
2022/12/01 06:42:20;;;;;;;12.27;8.67;;;3.30;96.10;;;;;;5034728;28;20241;-63
2022/12/01 06:44:46;;;;;;;9.37;7.70;;;3.20;96.10;;;;;;5017290;28;20244;-63
2022/12/01 06:47:11;;;;;;;11.90;8.93;;;3.20;96.10;;;;;;5022484;28;20286;-63
2022/12/01 06:49:37;;;;;;;10.77;7.87;;;3.20;96.10;;;;;;5037798;28;20191;-63
2022/12/01 06:52:03;;;;;;;14.83;9.90;;;3.20;96.10;;;;;;5021805;28;20199;-63
2022/12/01 06:54:29;;;;;;;12.40;7.93;;;3.20;96.00;;;;;;5017850;28;20209;-64
2022/12/01 06:56:55;;;;;;;11.50;9.43;;;3.10;95.90;;;;;;5021489;28;20445;-65
2022/12/01 06:59:20;;;;;;;14.30;9.77;;;3.10;95.90;;;;;;5033909;28;20278;-64
2022/12/01 07:05:17;;;;;;;13.20;8.67;;;3.00;95.80;;;;;;4948738;28;20186;-64
2022/12/01 07:07:43;;;;;;;12.43;9.33;;;3.00;95.90;;;;;;5004966;28;20425;-64
2022/12/01 07:10:10;;;;;;;19.73;12.60;;;3.00;95.90;;;;;;5038157;28;20239;-64
2022/12/01 07:16:33;;;;;;;18.30;9.90;;;3.10;96.00;;;;;;4935199;28;20461;-64
2022/12/01 07:18:59;;;;;;;16.13;10.40;;;3.10;96.00;;;;;;4925254;28;20474;-64
2022/12/01 07:21:24;;;;;;;15.00;10.30;;;3.10;96.10;;;;;;5031542;28;20424;-64
2022/12/01 07:23:50;;;;;;;14.80;11.23;;;3.20;96.10;;;;;;5005031;28;20186;-64
2022/12/01 07:26:26;;;;;;;12.27;9.70;;;3.10;96.10;;;;;;5036644;28;20217;-63
2022/12/01 07:28:54;;;;;;;12.73;8.97;;;3.20;96.20;;;;;;5026295;28;20183;-63
2022/12/01 07:31:19;;;;;;;13.67;9.53;;;3.20;96.20;;;;;;5014872;28;20428;-64
2022/12/01 07:33:45;;;;;;;13.90;9.70;;;3.20;96.20;;;;;;5015984;28;20429;-63
2022/12/01 07:36:13;;;;;;;11.30;8.97;;;3.20;96.10;;;;;;5029375;28;20190;-63
2022/12/01 07:38:52;;;;;;;12.13;8.93;;;3.30;96.10;;;;;;5017731;28;20207;-63
2022/12/01 07:55:52;;;;;;;18.53;10.10;;;3.30;96.10;;;;;;4836694;29;20434;-63
2022/12/01 07:58:50;;;;;;;10.73;8.80;;;3.30;96.10;;;;;;4842079;29;20443;-63
2022/12/01 08:01:46;;;;;;;15.00;9.50;;;3.30;96.10;;;;;;4878314;29;20451;-63
2022/12/01 08:19:08;;;;;;;12.47;9.57;;;3.20;96.00;;;;;;4808261;29;20488;-65
2022/12/01 08:22:21;;;;;;;13.50;9.93;;;3.10;96.00;;;;;;4810369;29;20457;-64
2022/12/01 08:32:11;;;;;;;12.63;9.13;;;3.00;95.90;;;;;;4779902;30;20457;-63
2022/12/01 08:34:37;;;;;;;13.80;10.37;;;3.00;96.00;;;;;;4793636;29;20437;-64
2022/12/01 08:37:03;;;;;;;13.53;10.53;;;3.00;96.00;;;;;;4885418;29;20254;-63
2022/12/01 08:39:28;;;;;;;13.60;9.63;;;3.00;96.00;;;;;;4983514;28;20211;-64
2022/12/01 08:43:30;;;;;;;;;;;;;;;;;;;;;
2022/12/01 08:58:58;;;;;;;13.30;8.67;;;3.10;96.20;;;;;;4847376;29;20487;-63
2022/12/01 09:01:27;;;;;;;9.90;7.30;;;3.20;96.10;;;;;;4935576;29;20421;-63
2022/12/01 09:04:07;;;;;;;10.03;7.60;;;3.20;96.20;;;;;;4954130;29;20198;-63
2022/12/01 09:06:51;;;;;;;10.60;8.03;;;3.30;96.20;;;;;;4982626;28;20481;-63
2022/12/01 09:09:19;;;;;;;9.50;7.77;;;3.30;96.20;;;;;;4996291;28;20772;-63
2022/12/01 09:11:46;;;;;;;9.87;7.73;;;3.30;96.20;;;;;;5030366;28;20440;-63
2022/12/01 09:14:14;;;;;;;10.10;8.23;;;3.40;96.20;;;;;;5040728;28;20433;-63
2022/12/01 09:16:41;;;;;;;9.33;7.97;;;3.40;96.20;;;;;;5024168;28;20425;-63
2022/12/01 09:19:07;;;;;;;12.70;8.63;;;3.40;96.30;;;;;;5023113;28;20558;-63
2022/12/01 09:21:35;;;;;;;11.13;8.00;;;3.40;96.20;;;;;;5048380;28;20504;-63
2022/12/01 09:24:04;;;;;;;11.50;8.80;;;3.40;96.20;;;;;;5051499;28;20688;-63
2022/12/01 09:26:30;;;;;;;10.47;7.97;;;3.50;96.20;;;;;;5055686;28;20447;-63
2022/12/01 09:29:44;;;;;;;11.13;8.80;;;3.50;96.20;;;;;;5045109;28;20476;-63
2022/12/01 09:32:10;;;;;;;10.80;8.77;;;3.40;96.20;;;;;;5029466;28;20425;-64
2022/12/01 09:34:36;;;;;;;14.03;11.23;;;3.50;96.20;;;;;;5020212;28;20425;-64
2022/12/01 09:37:01;;;;;;;10.30;8.47;;;3.50;96.20;;;;;;5056476;28;20193;-63
2022/12/01 09:39:30;;;;;;;13.70;9.83;;;3.50;96.20;;;;;;5024020;28;20218;-63
2022/12/01 09:42:06;;;;;;;12.57;9.07;;;3.50;96.20;;;;;;5023134;28;20238;-65
2022/12/01 09:45:11;;;;;;;11.37;9.00;;;3.50;96.20;;;;;;5054735;28;20416;-64
2022/12/01 09:47:38;;;;;;;12.23;9.30;;;3.50;96.20;;;;;;4959871;28;20451;-63
2022/12/01 09:50:27;;;;;;;10.63;8.40;;;3.50;96.20;;;;;;4938788;29;20972;-63
2022/12/01 09:53:25;;;;;;;9.43;7.90;;;3.50;96.10;;;;;;4956250;29;20433;-63
2022/12/01 09:56:09;;;;;;;10.80;8.80;;;3.50;96.10;;;;;;5008415;28;20446;-63
2022/12/01 09:58:35;;;;;;;10.20;7.93;;;3.50;96.10;;;;;;5022948;28;20479;-63
2022/12/01 10:01:41;;;;;;;10.53;8.77;;;3.50;96.20;;;;;;5036717;28;20425;-63
2022/12/01 10:04:19;;;;;;;13.47;8.10;;;3.50;96.20;;;;;;5032566;28;20418;-63
2022/12/01 10:06:59;;;;;;;11.10;8.60;;;3.50;96.20;;;;;;5050372;28;20457;-64
2022/12/01 10:09:47;;;;;;;10.67;7.70;;;3.50;96.20;;;;;;5030820;28;20420;-63
2022/12/01 10:12:16;;;;;;;10.47;7.93;;;3.50;96.20;;;;;;5043009;28;20432;-63
2022/12/01 10:14:47;;;;;;;11.60;8.00;;;3.50;96.10;;;;;;5041279;28;20560;-63
2022/12/01 10:17:18;;;;;;;11.77;9.90;;;3.50;96.00;;;;;;5049925;28;20424;-63
2022/12/01 10:20:27;;;;;;;10.60;8.60;;;3.40;96.00;;;;;;5031932;28;20468;-63
2022/12/01 10:23:30;;;;;;;11.50;8.43;;;3.40;96.00;;;;;;5019492;28;20455;-63
2022/12/01 10:26:13;;;;;;;11.47;8.77;;;3.40;96.10;;;;;;5037712;28;20424;-63
2022/12/01 10:28:55;;;;;;;10.37;8.70;;;3.40;96.10;;;;;;5055300;28;20435;-63
2022/12/01 10:31:42;;;;;;;13.07;8.97;;;3.40;96.10;;;;;;5031674;28;20440;-63
2022/12/01 10:34:34;;;;;;;10.50;8.47;;;3.50;96.10;;;;;;5035224;28;20425;-63
2022/12/01 10:37:00;;;;;;;9.30;7.93;;;3.50;96.10;;;;;;5036154;28;20439;-63
2022/12/01 10:39:26;;;;;;;12.17;8.10;;;3.50;96.10;;;;;;5035005;28;21060;-64
2022/12/01 10:41:55;;;;;;;11.10;8.07;;;3.50;96.10;;;;;;5036577;28;20490;-64
2022/12/01 10:44:21;;;;;;;10.73;7.97;;;3.40;96.00;;;;;;5026572;28;20284;-63
2022/12/01 10:46:54;;;;;;;10.73;8.27;;;3.40;96.00;;;;;;5019401;28;20837;-63
2022/12/01 10:49:33;;;;;;;9.93;7.90;;;3.40;95.90;;;;;;5033429;28;20671;-63
2022/12/01 10:51:59;;;;;;;10.97;7.90;;;3.40;96.00;;;;;;5020261;28;20608;-63
2022/12/01 10:54:39;;;;;;;10.80;8.23;;;3.30;96.00;;;;;;5021089;28;21002;-63
2022/12/01 10:57:12;;;;;;;10.00;7.90;;;3.40;96.10;;;;;;5050013;28;20197;-63
2022/12/01 11:00:03;;;;;;;11.17;8.50;;;3.40;96.10;;;;;;5025547;28;20461;-63
2022/12/01 11:02:30;;;;;;;10.73;7.90;;;3.40;96.20;;;;;;5024672;28;20422;-63
2022/12/01 11:05:24;;;;;;;11.33;7.80;;;3.50;96.20;;;;;;5020047;28;20513;-64
2022/12/01 11:08:55;;;;;;;10.00;7.60;;;3.50;96.20;;;;;;5053634;28;20614;-63
2022/12/01 11:12:00;;;;;;;10.20;7.47;;;3.50;96.10;;;;;;5024427;28;20487;-63
2022/12/01 11:15:19;;;;;;;8.77;6.77;;;3.50;96.10;;;;;;5024729;28;20974;-64
2022/12/01 11:17:58;;;;;;;10.17;7.77;;;3.60;96.20;;;;;;5038413;28;20420;-64
2022/12/01 11:21:35;;;;;;;10.50;7.70;;;3.50;96.20;;;;;;5036864;28;20464;-64
2022/12/01 11:24:48;;;;;;;10.27;7.63;;;3.50;96.20;;;;;;5028511;28;20520;-64
2022/12/01 11:28:26;;;;;;;12.33;8.73;;;3.60;96.20;;;;;;5046819;28;20413;-64
2022/12/01 11:57:29;;;;;;;11.00;8.43;;;3.70;96.20;;;;;;4732158;30;20529;-64
2022/12/01 12:03:24;;;;;;;10.67;8.33;;;3.60;96.20;;;;;;4828412;29;20451;-64
2022/12/01 12:06:02;;;;;;;10.27;8.03;;;3.70;96.30;;;;;;4901569;28;20448;-64
2022/12/01 12:08:57;;;;;;;8.57;6.90;;;3.60;96.20;;;;;;5010953;28;20194;-64
2022/12/01 12:11:31;;;;;;;9.07;7.60;;;3.70;96.20;;;;;;5002313;28;20422;-66
2022/12/01 12:14:34;;;;;;;9.20;7.40;;;3.70;96.20;;;;;;5026733;28;20529;-63
2022/12/01 12:17:07;;;;;;;7.67;6.67;;;3.80;96.20;;;;;;5017374;28;20560;-64
2022/12/01 12:19:36;;;;;;;9.47;7.60;;;3.80;96.20;;;;;;5006453;28;20467;-64
2022/12/01 12:22:04;;;;;;;9.33;6.63;;;3.80;96.20;;;;;;5005691;28;20544;-64
2022/12/01 12:24:48;;;;;;;13.83;7.20;;;3.80;96.20;;;;;;5027129;28;20505;-63
2022/12/01 12:27:38;;;;;;;12.40;7.70;;;3.80;96.20;;;;;;5011158;28;20447;-64
2022/12/01 12:30:26;;;;;;;9.87;7.50;;;3.80;96.20;;;;;;5031397;28;20429;-64
2022/12/01 12:32:55;;;;;;;19.47;14.00;;;3.80;96.20;;;;;;5013675;28;20426;-64
2022/12/01 12:35:26;;;;;;;48.00;31.57;;;3.90;96.20;;;;;;5010863;28;20445;-64
2022/12/01 12:39:00;;;;;;;71.57;48.77;;;3.90;96.20;;;;;;5006424;28;20485;-64
2022/12/01 12:41:46;;;;;;;30.80;24.23;;;3.90;96.20;;;;;;4924933;29;20720;-63
2022/12/01 12:44:33;;;;;;;19.53;16.20;;;3.90;96.20;;;;;;4924728;29;20482;-63
2022/12/01 12:47:18;;;;;;;15.10;9.63;;;3.90;96.20;;;;;;5016214;28;20457;-63
2022/12/01 12:49:59;;;;;;;10.50;9.30;;;4.00;96.20;;;;;;5023462;28;20422;-63
2022/12/01 12:52:32;;;;;;;9.40;7.57;;;3.90;96.20;;;;;;5031530;28;20420;-63
2022/12/01 12:55:27;;;;;;;11.67;8.80;;;3.90;96.10;;;;;;5034243;28;20436;-64
2022/12/01 12:58:13;;;;;;;10.50;7.50;;;4.00;96.10;;;;;;5043240;28;20446;-62
2022/12/01 13:00:52;;;;;;;11.07;7.83;;;4.00;96.10;;;;;;5031660;28;20459;-62
2022/12/01 13:03:40;;;;;;;9.47;7.23;;;4.00;96.10;;;;;;5041204;28;20420;-63
2022/12/01 13:06:17;;;;;;;9.13;7.70;;;4.00;96.10;;;;;;5053147;28;20480;-63
2022/12/01 13:30:20;;;;;;;11.23;7.97;;;4.00;96.10;;;;;;5047509;28;20474;-61
2022/12/01 13:33:04;;;;;;;9.30;7.97;;;3.90;96.10;;;;;;5035929;28;20969;-60
2022/12/01 13:35:36;;;;;;;10.97;8.03;;;4.00;96.10;;;;;;5028533;28;20425;-60
2022/12/01 13:38:49;;;;;;;10.10;8.53;;;4.00;96.10;;;;;;5028377;28;20479;-60
2022/12/01 13:41:18;;;;;;;13.13;10.10;;;4.00;96.20;;;;;;5023426;28;20444;-60
2022/12/01 13:44:25;;;;;;;10.60;8.73;;;4.00;96.20;;;;;;5022490;28;20556;-60
2022/12/01 13:47:07;;;;;;;13.13;9.93;;;4.00;96.20;;;;;;4999771;28;20441;-60
2022/12/01 13:49:33;;;;;;;11.50;9.67;;;4.00;96.20;;;;;;5028147;28;20435;-60
2022/12/01 13:52:21;;;;;;;13.50;10.20;;;4.00;96.20;;;;;;5003077;28;20434;-61
2022/12/01 13:55:08;;;;;;;11.63;9.30;;;4.00;96.20;;;;;;5028895;28;20214;-60
2022/12/01 13:57:39;;;;;;;10.60;8.43;;;4.00;96.20;;;;;;5014208;28;20492;-60
2022/12/01 14:00:28;;;;;;;12.40;9.10;;;4.00;96.20;;;;;;5014766;28;20461;-60
2022/12/01 14:03:15;;;;;;;13.03;9.40;;;4.00;96.10;;;;;;5030273;28;20426;-60
2022/12/01 14:05:52;;;;;;;13.13;8.53;;;4.00;96.10;;;;;;5022497;28;20445;-61
2022/12/01 14:08:47;;;;;;;13.03;9.77;;;3.90;96.10;;;;;;5034171;28;20452;-61
2022/12/01 14:11:23;;;;;;;12.90;8.83;;;3.90;96.10;;;;;;5035985;28;20432;-61
2022/12/01 14:14:10;;;;;;;12.43;8.50;;;4.00;96.10;;;;;;5014853;28;20429;-60
2022/12/01 14:17:01;;;;;;;12.33;9.40;;;4.00;96.10;;;;;;5028933;28;20508;-60
2022/12/01 14:19:47;;;;;;;12.57;9.53;;;4.00;96.10;;;;;;5017763;28;20541;-60
2022/12/01 14:22:33;;;;;;;15.30;10.47;;;4.00;96.10;;;;;;5025490;28;20441;-60
2022/12/01 14:25:00;;;;;;;15.40;11.37;;;4.00;96.10;;;;;;5018127;28;20440;-60
2022/12/01 14:27:37;;;;;;;17.00;11.13;;;4.00;96.10;;;;;;5011863;28;20425;-60
2022/12/01 14:30:46;;;;;;;12.33;10.07;;;4.00;96.10;;;;;;5014261;28;20496;-60
2022/12/01 14:33:38;;;;;;;17.03;11.97;;;4.00;96.10;;;;;;5017890;28;20433;-60
2022/12/01 14:36:27;;;;;;;15.80;12.43;;;3.90;96.00;;;;;;4992095;28;20452;-60
2022/12/01 14:38:56;;;;;;;18.60;12.37;;;4.00;96.00;;;;;;4990292;28;20418;-60
2022/12/01 14:41:36;;;;;;;16.10;12.93;;;4.00;96.00;;;;;;5018095;28;20532;-60
2022/12/01 14:44:31;;;;;;;21.87;16.53;;;4.00;96.00;;;;;;5034758;28;20475;-60
2022/12/01 14:47:12;;;;;;;18.80;14.00;;;4.00;96.00;;;;;;5003708;28;20434;-62
2022/12/01 14:49:41;;;;;;;19.23;14.10;;;4.00;96.00;;;;;;5035745;28;20428;-61
2022/12/01 14:52:28;;;;;;;19.73;13.37;;;4.00;96.00;;;;;;5047403;28;20455;-59
2022/12/01 14:55:05;;;;;;;15.00;11.57;;;4.00;96.10;;;;;;5027682;28;20429;-62
2022/12/01 14:57:40;;;;;;;16.70;12.90;;;4.00;96.00;;;;;;5030836;28;20612;-62
2022/12/01 15:00:16;;;;;;;16.93;12.40;;;4.10;96.10;;;;;;5026984;28;20462;-59
2022/12/01 15:02:56;;;;;;;18.47;12.63;;;4.00;96.10;;;;;;5021544;28;20441;-60
2022/12/01 15:05:26;;;;;;;20.37;12.70;;;4.00;96.00;;;;;;5037735;28;20425;-60
2022/12/01 15:07:54;;;;;;;19.07;13.57;;;4.10;96.10;;;;;;5029590;28;20442;-60
2022/12/01 15:10:24;;;;;;;21.33;13.23;;;4.00;96.10;;;;;;5031157;28;20459;-60
2022/12/01 15:12:51;;;;;;;19.97;13.47;;;4.10;96.10;;;;;;5030196;28;21004;-60
2022/12/01 15:15:25;;;;;;;20.77;14.43;;;4.00;96.10;;;;;;5015890;28;20479;-60
2022/12/01 15:17:54;;;;;;;20.03;14.23;;;4.00;96.10;;;;;;5020485;28;20436;-60
2022/12/01 15:20:33;;;;;;;17.53;12.87;;;4.00;96.10;;;;;;5035999;28;20551;-60
2022/12/01 15:23:01;;;;;;;17.67;13.70;;;4.00;96.10;;;;;;5037415;28;20443;-59
2022/12/01 15:25:34;;;;;;;17.93;12.83;;;4.00;96.10;;;;;;5046228;28;20442;-59
2022/12/01 15:28:15;;;;;;;20.13;13.37;;;4.00;96.10;;;;;;5034452;28;20842;-60
2022/12/01 15:30:43;;;;;;;20.73;13.17;;;4.00;96.10;;;;;;5031184;28;20449;-60
2022/12/01 15:33:33;;;;;;;25.90;16.90;;;4.00;96.10;;;;;;5035297;28;20489;-60
2022/12/01 15:36:00;;;;;;;23.60;15.80;;;4.00;96.10;;;;;;5028609;28;20437;-59
2022/12/01 15:38:34;;;;;;;25.00;15.20;;;4.00;96.10;;;;;;5028329;28;20907;-60
2022/12/01 15:41:02;;;;;;;21.77;14.37;;;4.00;96.10;;;;;;5022344;28;20951;-60
2022/12/01 15:43:37;;;;;;;24.00;15.83;;;4.00;96.10;;;;;;5018032;28;20477;-60
2022/12/01 15:46:15;;;;;;;24.00;16.23;;;4.00;96.10;;;;;;5048162;28;20493;-61
2022/12/01 15:48:42;;;;;;;24.27;16.87;;;4.00;96.10;;;;;;5028965;28;20439;-61
2022/12/01 15:51:26;;;;;;;21.83;13.97;;;4.00;96.10;;;;;;5026965;28;20429;-61
2022/12/01 15:53:57;;;;;;;21.43;14.17;;;4.00;96.10;;;;;;5013925;28;20433;-61
2022/12/01 15:56:26;;;;;;;21.80;14.70;;;4.00;96.10;;;;;;5021716;28;20428;-61
2022/12/01 15:59:08;;;;;;;19.33;14.77;;;4.00;96.10;;;;;;5048499;28;20424;-61
2022/12/01 16:01:34;;;;;;;25.10;16.57;;;3.90;96.10;;;;;;5036528;28;20431;-61
2022/12/01 16:04:13;;;;;;;22.80;16.10;;;4.00;96.10;;;;;;5018488;28;20420;-61
2022/12/01 16:06:39;;;;;;;23.37;16.73;;;4.00;96.20;;;;;;5053872;28;20428;-61
2022/12/01 16:09:29;;;;;;;18.63;13.73;;;4.00;96.20;;;;;;4995528;28;20433;-61
2022/12/01 16:12:16;;;;;;;19.70;13.60;;;4.00;96.20;;;;;;5032539;28;20432;-61
2022/12/01 16:14:48;;;;;;;22.77;14.57;;;4.00;96.20;;;;;;5027120;28;20429;-61
2022/12/01 16:17:16;;;;;;;26.03;17.93;;;4.00;96.20;;;;;;5035001;28;20557;-61
2022/12/01 16:19:42;;;;;;;24.93;19.40;;;4.00;96.20;;;;;;5017589;28;20471;-61
2022/12/01 16:22:11;;;;;;;22.47;16.87;;;4.00;96.20;;;;;;5018987;28;21200;-61
2022/12/01 16:24:48;;;;;;;18.57;14.30;;;3.90;96.20;;;;;;5021607;28;20511;-61
2022/12/01 16:27:23;;;;;;;16.90;12.87;;;4.00;96.20;;;;;;5026508;28;20425;-61
2022/12/01 16:29:57;;;;;;;16.37;11.70;;;4.00;96.20;;;;;;5034683;28;20444;-61
2022/12/01 16:32:38;;;;;;;17.17;13.00;;;4.00;96.20;;;;;;5033452;28;20436;-61
2022/12/01 16:35:06;;;;;;;13.40;9.97;;;4.00;96.20;;;;;;5032541;28;20467;-61
2022/12/01 16:37:32;;;;;;;17.10;12.37;;;4.00;96.10;;;;;;5046411;28;21017;-61
2022/12/01 16:39:58;;;;;;;18.23;13.07;;;3.90;96.10;;;;;;5013763;28;20557;-61
2022/12/01 16:42:24;;;;;;;18.83;13.23;;;3.90;96.10;;;;;;5044258;28;20193;-62